Terminal Aerodrome Forecast
Issued by NWS Wakefield, VA

Home | Current Version | Previous Version | Text Only | Print | Product List | Glossary On
Versions: 1 2 3 4 5 6 7 8 9 10 11 12 13 14 15 16 17 18 19 20 21 22
000
FTUS41 KAKQ 011132
TAFSBY
TAF
KSBY 011132Z 0112/0212 13003KT 3SM -RA OVC030
      TEMPO 0112/0113 2SM RA BR SCT007 BKN015
     FM011300 15004KT 4SM -RA BR SCT007 OVC015
      TEMPO 0113/0115 3SM -RA BR OVC007
     FM011500 16007KT 3SM -RA BR OVC007
     FM012100 21010KT 4SM -RA BR OVC015
     FM020000 20006KT 4SM BR OVC015=

USA.gov is the U.S. government's official web portal to all federal, state and local government web resources and services.